createdAt,value
2019-04-05T00:00:55.728Z,54.47
2019-04-05T00:05:01.467Z,55.27
2019-04-05T00:09:08.447Z,55.76
2019-04-05T00:13:14.111Z,54.34
2019-04-05T00:17:19.810Z,52.94
2019-04-05T00:21:25.540Z,54.66
2019-04-05T00:25:31.265Z,54.04
2019-04-05T00:29:36.976Z,54.75
2019-04-05T00:33:42.690Z,57.05
2019-04-05T00:37:48.364Z,54.37
2019-04-05T00:41:54.115Z,54.69
2019-04-05T00:45:59.796Z,58.06
2019-04-05T00:50:12.307Z,56.96
2019-04-05T00:54:17.965Z,55.14
2019-04-05T00:58:23.719Z,54.01
2019-04-05T01:02:29.651Z,53.80
2019-04-05T01:06:35.858Z,56.64
2019-04-05T01:10:43.015Z,56.80
2019-04-05T01:14:49.127Z,55.94
2019-04-05T01:18:54.878Z,54.80
2019-04-05T01:23:02.404Z,54.66
2019-04-05T01:27:08.811Z,54.51
2019-04-05T01:31:14.544Z,53.91
2019-04-05T01:35:20.312Z,54.40
2019-04-05T01:39:26.077Z,58.29
2019-04-05T01:43:31.891Z,54.13
2019-04-05T01:47:37.891Z,52.84
2019-04-05T01:51:44.353Z,56.01
2019-04-05T01:55:50.021Z,56.80
2019-04-05T01:59:55.724Z,52.54
2019-04-05T02:04:01.618Z,52.38
2019-04-05T02:08:07.512Z,51.75
2019-04-05T02:12:13.358Z,54.03
2019-04-05T02:16:19.172Z,54.56
2019-04-05T02:20:25.373Z,53.21
2019-04-05T02:24:31.135Z,57.23
2019-04-05T02:28:37.290Z,55.58
2019-04-05T02:32:43.213Z,52.69
2019-04-05T02:36:48.970Z,57.77
2019-04-05T02:40:58.483Z,53.74
2019-04-05T02:45:06.820Z,53.95
2019-04-05T02:49:14.420Z,56.27
2019-04-05T02:53:21.712Z,56.62
2019-04-05T02:57:28.999Z,56.20
2019-04-05T03:01:35.797Z,56.80
2019-04-05T03:05:42.019Z,52.79
2019-04-05T03:09:49.459Z,53.20
2019-04-05T03:13:59.305Z,54.78
2019-04-05T03:18:05.107Z,56.39
2019-04-05T03:22:14.050Z,54.02
2019-04-05T03:26:24.169Z,55.25
2019-04-05T03:30:30.354Z,56.67
2019-04-05T03:34:37.360Z,54.47
2019-04-05T03:38:43.263Z,56.29
2019-04-05T03:42:49.275Z,54.06
2019-04-05T03:46:57.926Z,54.07
2019-04-05T03:51:03.781Z,54.68
2019-04-05T03:55:09.900Z,54.94
2019-04-05T03:59:15.569Z,57.04
2019-04-05T04:03:21.495Z,55.49
2019-04-05T04:07:27.329Z,56.44
2019-04-05T04:11:33.479Z,54.42
2019-04-05T04:15:39.549Z,57.72
2019-04-05T04:19:46.223Z,55.41
2019-04-05T04:23:52.415Z,53.31
2019-04-05T04:27:58.872Z,56.31
2019-04-05T04:32:05.213Z,52.80
2019-04-05T04:36:13.241Z,54.82
2019-04-05T04:40:21.213Z,53.91
2019-04-05T04:44:27.412Z,54.76
2019-04-05T04:48:33.739Z,52.62
2019-04-05T04:52:39.644Z,51.74
2019-04-05T04:56:45.735Z,52.40
2019-04-05T05:00:51.826Z,52.08
2019-04-05T05:04:57.806Z,53.61
2019-04-05T05:09:06.432Z,55.45
2019-04-05T05:13:12.268Z,56.22
2019-04-05T05:17:18.425Z,57.47
2019-04-05T05:21:24.343Z,52.84
2019-04-05T05:25:30.440Z,52.06
2019-04-05T05:29:36.609Z,54.53
2019-04-05T05:33:42.860Z,52.66
2019-04-05T05:37:49.383Z,52.45
2019-04-05T05:41:55.190Z,53.70
2019-04-05T05:46:01.250Z,53.42
2019-04-05T05:50:09.979Z,51.03
2019-04-05T05:54:15.682Z,51.74
2019-04-05T05:58:21.376Z,54.68
2019-04-05T06:02:27.142Z,55.74
2019-04-05T06:06:32.842Z,50.99
2019-04-05T06:10:38.545Z,51.31
2019-04-05T06:14:44.296Z,53.06
2019-04-05T06:18:49.979Z,53.10
2019-04-05T06:22:55.668Z,51.92
2019-04-05T06:27:02.404Z,51.97
2019-04-05T06:31:08.114Z,50.61
2019-04-05T06:35:13.872Z,50.38
2019-04-05T06:39:20.829Z,53.22
2019-04-05T06:43:26.674Z,53.50
2019-04-05T06:47:32.375Z,50.46
2019-04-05T06:51:38.072Z,55.51
2019-04-05T06:55:43.759Z,55.04
2019-04-05T06:59:49.435Z,50.96
2019-04-05T07:03:55.414Z,51.80
2019-04-05T07:08:01.174Z,51.16
2019-04-05T07:12:06.978Z,54.10
2019-04-05T07:16:12.710Z,50.83
2019-04-05T07:20:18.547Z,54.21
2019-04-05T07:24:24.234Z,51.40
2019-04-05T07:28:29.990Z,52.97
2019-04-05T07:32:35.829Z,52.15
2019-04-05T07:36:41.519Z,50.23
2019-04-05T07:40:47.283Z,52.75
2019-04-05T07:44:52.984Z,53.10
2019-04-05T07:48:58.720Z,50.98
2019-04-05T07:53:05.396Z,51.37
2019-04-05T07:57:11.081Z,52.60
2019-04-05T08:01:16.881Z,51.05
2019-04-05T08:05:22.653Z,48.37
2019-04-05T08:09:28.912Z,50.14
2019-04-05T08:13:38.658Z,50.06
2019-04-05T08:17:44.330Z,50.18
2019-04-05T08:21:50.009Z,53.70
2019-04-05T08:25:55.767Z,53.28
2019-04-05T08:30:01.507Z,50.52
2019-04-05T08:34:07.403Z,52.94
2019-04-05T08:38:13.056Z,51.39
2019-04-05T08:42:18.768Z,50.84
2019-04-05T08:46:24.580Z,50.02
2019-04-05T08:50:30.363Z,53.69
2019-04-05T08:54:36.868Z,51.11
2019-04-05T08:58:42.857Z,50.36
2019-04-05T09:02:48.822Z,49.38
2019-04-05T09:06:55.485Z,50.69
2019-04-05T09:11:01.182Z,47.76
2019-04-05T09:15:08.529Z,48.78
2019-04-05T09:19:23.364Z,49.43
2019-04-05T09:23:21.904Z,49.74
2019-04-05T09:27:27.603Z,50.63
2019-04-05T09:31:33.486Z,49.85
2019-04-05T09:35:39.191Z,46.16
2019-04-05T09:39:44.882Z,48.51
2019-04-05T09:43:50.584Z,47.49
2019-04-05T09:47:56.294Z,44.91
2019-04-05T09:52:01.998Z,42.71
2019-04-05T09:56:07.717Z,40.61
2019-04-05T10:05:25.830Z,38.99
2019-04-05T10:09:31.600Z,32.56
2019-04-05T10:13:37.370Z,34.01
2019-04-05T10:17:43.069Z,32.15
2019-04-05T10:21:48.757Z,31.44
2019-04-05T10:25:54.455Z,34.33
2019-04-05T10:30:00.151Z,36.00
2019-04-05T10:34:06.020Z,37.82
2019-04-05T10:38:11.734Z,37.70
2019-04-05T10:42:34.005Z,39.77
2019-04-05T10:46:39.698Z,37.74
2019-04-05T10:50:45.519Z,40.43
2019-04-05T10:54:51.248Z,39.68
2019-04-05T10:58:57.010Z,39.40
2019-04-05T11:03:02.836Z,40.67
2019-04-05T11:07:08.572Z,41.60
2019-04-05T11:11:14.279Z,41.55
2019-04-05T11:15:20.596Z,40.90
2019-04-05T11:19:26.370Z,42.08
2019-04-05T11:23:32.079Z,43.82
2019-04-05T11:27:37.939Z,45.74
2019-04-05T11:31:55.979Z,44.18
2019-04-05T11:35:51.511Z,42.17
2019-04-05T11:39:58.001Z,42.95
2019-04-05T11:44:04.409Z,44.64
2019-04-05T11:48:10.317Z,45.47
2019-04-05T11:52:16.186Z,42.56
2019-04-05T11:56:21.884Z,43.83
2019-04-05T12:00:36.350Z,44.52
2019-04-05T12:04:42.902Z,45.37
2019-04-05T12:08:48.787Z,43.83
2019-04-05T12:12:54.563Z,44.08
2019-04-05T12:17:00.263Z,44.46
2019-04-05T12:21:06.050Z,44.92
2019-04-05T12:25:12.061Z,45.55
2019-04-05T12:29:17.823Z,45.79
2019-04-05T12:33:23.687Z,45.96
2019-04-05T12:37:29.444Z,45.88
2019-04-05T12:41:35.120Z,45.75
2019-04-05T12:45:44.349Z,45.37
2019-04-05T12:49:48.255Z,45.77
2019-04-05T12:53:56.489Z,46.83
2019-04-05T12:58:01.344Z,46.34
2019-04-05T13:02:07.050Z,45.41
2019-04-05T13:06:12.769Z,46.10
2019-04-05T13:10:18.470Z,46.59
2019-04-05T13:14:26.094Z,46.09
2019-04-05T13:18:31.880Z,45.90
2019-04-05T13:34:06.312Z,45.91
2019-04-05T13:38:12.152Z,45.31
2019-04-05T13:42:17.843Z,45.82
2019-04-05T13:46:26.054Z,45.25
2019-04-05T13:50:31.048Z,47.18
2019-04-05T13:54:38.291Z,45.51
2019-04-05T13:58:46.362Z,45.06
2019-04-05T14:02:51.654Z,46.49
2019-04-05T14:06:57.357Z,47.11
2019-04-05T14:11:03.594Z,45.54
2019-04-05T14:15:11.242Z,44.86
2019-04-05T14:19:19.382Z,45.99
2019-04-05T14:23:26.200Z,47.78
2019-04-05T14:27:34.930Z,47.52
2019-04-05T14:31:39.304Z,47.03
2019-04-05T14:35:45.062Z,47.75
2019-04-05T14:39:50.769Z,47.63
2019-04-05T14:43:56.442Z,49.01
2019-04-05T14:48:02.323Z,46.41
2019-04-05T14:52:08.028Z,45.57
2019-04-05T14:56:13.717Z,45.90
2019-04-05T15:00:19.843Z,46.01
2019-04-05T15:04:25.525Z,46.16
2019-04-05T15:08:31.243Z,45.65
2019-04-05T15:12:36.970Z,45.23
2019-04-05T15:16:42.661Z,45.35
2019-04-05T15:20:48.336Z,45.57
2019-04-05T15:24:54.105Z,45.11
2019-04-05T15:28:59.821Z,45.67
2019-04-05T15:33:05.808Z,45.34
2019-04-05T15:37:11.809Z,45.60
2019-04-05T15:41:17.558Z,47.15
2019-04-05T15:45:23.422Z,45.78
2019-04-05T15:49:30.186Z,46.80
2019-04-05T15:53:35.887Z,45.77
2019-04-05T15:57:41.585Z,46.87
2019-04-05T16:01:47.263Z,46.40
2019-04-05T16:05:53.108Z,47.90
2019-04-05T16:09:58.889Z,45.44
2019-04-05T16:14:04.933Z,46.67
2019-04-05T16:18:10.707Z,46.24
2019-04-05T16:22:16.443Z,45.52
2019-04-05T16:26:22.144Z,45.64
2019-04-05T16:30:27.920Z,46.19
2019-04-05T16:34:33.602Z,47.36
2019-04-05T16:38:39.371Z,45.53
2019-04-05T16:42:45.128Z,45.40
2019-04-05T16:46:50.826Z,46.36
2019-04-05T16:50:56.527Z,46.80
2019-04-05T16:55:03.259Z,46.69
2019-04-05T16:59:09.020Z,48.11
2019-04-05T17:03:14.695Z,48.26
2019-04-05T17:07:21.769Z,48.08
2019-04-05T17:11:27.628Z,47.86
2019-04-05T17:15:33.436Z,48.22
2019-04-05T17:19:40.756Z,47.64
2019-04-05T17:23:46.471Z,48.20
2019-04-05T17:27:52.183Z,47.04
2019-04-05T17:37:13.882Z,46.63
2019-04-05T17:41:19.586Z,47.06
2019-04-05T17:45:25.334Z,47.06
2019-04-05T17:49:31.006Z,47.52
2019-04-05T17:53:36.992Z,50.65
2019-04-05T17:57:42.994Z,48.77
2019-04-05T18:01:48.753Z,49.42
2019-04-05T18:05:54.472Z,50.44
2019-04-05T18:10:00.262Z,50.38
2019-04-05T18:14:06.122Z,49.74
2019-04-05T18:18:12.784Z,49.04
2019-04-05T18:22:18.527Z,48.71
2019-04-05T18:26:24.237Z,49.42
2019-04-05T18:30:30.037Z,50.24
2019-04-05T18:34:35.798Z,49.60
2019-04-05T18:38:41.517Z,50.42
2019-04-05T18:42:47.291Z,50.30
2019-04-05T18:46:52.974Z,50.08
2019-04-05T18:50:58.875Z,51.71
2019-04-05T18:55:07.207Z,51.46
2019-04-05T18:59:12.922Z,50.21
2019-04-05T19:03:18.835Z,50.95
2019-04-05T19:07:24.554Z,49.75
2019-04-05T19:11:30.374Z,48.97
2019-04-05T19:15:36.085Z,48.81
2019-04-05T19:19:41.874Z,48.53
2019-04-05T19:23:51.024Z,49.93
2019-04-05T19:27:55.307Z,48.34
2019-04-05T19:48:31.454Z,50.08
2019-04-05T19:52:37.876Z,49.28
2019-04-05T19:56:43.581Z,49.38
2019-04-05T20:00:49.412Z,49.40
2019-04-05T20:04:55.198Z,49.62
2019-04-05T20:09:00.876Z,50.14
2019-04-05T20:13:08.497Z,47.87
2019-04-05T20:17:14.268Z,51.98
2019-04-05T20:21:19.997Z,48.63
2019-04-05T20:25:25.715Z,49.45
2019-04-05T20:29:31.397Z,47.69
2019-04-05T20:33:37.187Z,48.64
2019-04-05T20:37:42.922Z,49.16
2019-04-05T20:41:48.737Z,48.00
2019-04-05T20:45:57.090Z,48.28
2019-04-05T20:50:02.956Z,50.49
2019-04-05T20:54:08.658Z,49.33
2019-04-05T20:58:14.394Z,49.27
2019-04-05T21:02:20.177Z,49.32
2019-04-05T21:06:25.878Z,49.75
2019-04-05T21:10:31.589Z,49.58
2019-04-05T21:14:37.287Z,48.76
2019-04-05T21:18:42.991Z,49.17
2019-04-05T21:22:48.755Z,50.04
2019-04-05T21:26:54.446Z,49.61
2019-04-05T21:31:00.148Z,49.96
2019-04-05T21:35:07.668Z,49.80
2019-04-05T21:39:13.362Z,50.11
2019-04-05T21:43:19.059Z,51.21
2019-04-05T21:47:24.842Z,49.56
2019-04-05T21:51:30.584Z,50.49
2019-04-05T21:55:36.404Z,50.27
2019-04-05T21:59:42.079Z,51.73
2019-04-05T22:03:47.764Z,55.34
2019-04-05T22:07:53.480Z,51.78
2019-04-05T22:11:59.345Z,52.58
2019-04-05T22:16:05.068Z,52.21
2019-04-05T22:20:11.524Z,55.04
2019-04-05T22:24:17.194Z,54.37
2019-04-05T22:28:22.912Z,52.64
2019-04-05T22:32:28.611Z,55.82
2019-04-05T22:36:34.308Z,57.14
2019-04-05T22:40:40.005Z,56.04
2019-04-05T22:44:45.692Z,54.10
2019-04-05T22:48:51.383Z,55.17
2019-04-05T22:52:57.076Z,57.68
2019-04-05T23:01:04.483Z,54.04
2019-04-05T23:05:10.428Z,56.31
2019-04-05T23:09:16.127Z,56.81
2019-04-05T23:13:21.849Z,56.06
2019-04-05T23:17:27.610Z,55.76
2019-04-05T23:21:33.291Z,57.58
2019-04-05T23:25:39.020Z,55.26
2019-04-05T23:29:44.697Z,56.51
2019-04-05T23:33:50.396Z,55.94
2019-04-05T23:37:56.091Z,60.40
2019-04-05T23:42:01.962Z,56.20
2019-04-05T23:46:07.673Z,58.88
2019-04-05T23:50:13.678Z,58.75
2019-04-05T23:54:19.360Z,55.51
2019-04-05T23:58:25.074Z,57.04
